Time;durP1;ratioP1;P1;durP2;ratioP2;P2;SDS_P1;SDS_P2;PMS_P1;PMS_P2;Temp;Humidity;BMP_temperature;BMP_pressure;BME280_temperature;BME280_humidity;BME280_pressure;Samples;Min_cycle;Max_cycle;Signal;HPM_P1;HPM_P2
2023/04/29 07:21:03;;;;;;;;;36.75;31.00;;;;;-145.45;100.00;57426.63;6189468;22;46447;-71
2023/04/29 07:23:29;;;;;;;;;33.25;30.50;;;;;-145.45;100.00;57426.63;6214666;22;45185;-71
2023/04/29 07:25:54;;;;;;;;;30.50;28.25;;;;;-145.45;100.00;57426.63;6215597;22;44834;-70
2023/04/29 07:28:19;;;;;;;;;29.00;28.00;;;;;-145.45;100.00;57426.63;6215641;22;45260;-71
2023/04/29 07:30:45;;;;;;;;;33.50;30.50;;;;;-145.45;100.00;57426.63;6213516;22;45248;-73
2023/04/29 07:33:10;;;;;;;;;50.50;35.25;;;;;-145.45;100.00;57426.63;6215504;22;46236;-70
2023/04/29 07:35:35;;;;;;;;;40.25;32.25;;;;;-145.45;100.00;57426.63;6215266;22;46243;-73
2023/04/29 07:38:00;;;;;;;;;35.50;32.25;;;;;-145.45;100.00;57426.63;6215243;22;45267;-71
2023/04/29 07:40:26;;;;;;;;;39.50;32.00;;;;;-145.45;100.00;57426.63;6215717;22;45250;-72
2023/04/29 07:42:51;;;;;;;;;38.00;32.00;;;;;-145.45;100.00;57426.63;6216014;22;45173;-73
2023/04/29 07:45:17;;;;;;;;;34.00;29.25;;;;;-145.45;100.00;57426.63;6215638;22;45485;-73
2023/04/29 07:47:42;;;;;;;;;40.50;33.00;;;;;-145.45;100.00;57426.63;6215426;22;45149;-73
2023/04/29 07:50:08;;;;;;;;;41.25;32.00;;;;;-145.45;100.00;57426.63;6212861;22;45388;-73
2023/04/29 07:52:33;;;;;;;;;33.75;32.25;;;;;-145.45;100.00;57426.63;6215632;22;45678;-72
2023/04/29 07:54:58;;;;;;;;;33.00;30.00;;;;;-145.45;100.00;57426.63;6215429;22;46037;-73
2023/04/29 07:57:24;;;;;;;;;37.25;34.00;;;;;-145.45;100.00;57426.63;6215770;22;45209;-73
2023/04/29 07:59:53;;;;;;;;;40.75;33.25;;;;;-145.45;100.00;57426.63;6215957;22;45213;-73
2023/04/29 08:02:19;;;;;;;;;37.00;32.50;;;;;-145.45;100.00;57426.63;6215696;22;45116;-73
2023/04/29 08:04:45;;;;;;;;;39.00;32.50;;;;;-145.45;100.00;57426.63;6215523;22;46407;-73
2023/04/29 08:07:10;;;;;;;;;44.00;36.00;;;;;-145.45;100.00;57426.63;6214947;22;45640;-72
2023/04/29 08:09:36;;;;;;;;;34.00;29.25;;;;;-145.45;100.00;57426.63;6215772;22;45186;-70
2023/04/29 08:12:01;;;;;;;;;43.50;34.25;;;;;-145.45;100.00;57426.63;6215615;22;45169;-71
2023/04/29 08:14:27;;;;;;;;;33.25;31.25;;;;;-145.45;100.00;57426.63;6215769;22;45373;-71
2023/04/29 08:16:53;;;;;;;;;41.00;34.75;;;;;-145.45;100.00;57426.63;6215146;22;45209;-71
2023/04/29 08:19:20;;;;;;;;;37.00;31.50;;;;;-145.45;100.00;57426.63;6215964;22;45284;-72
2023/04/29 08:21:46;;;;;;;;;38.25;33.00;;;;;-145.45;100.00;57426.63;6230977;22;45303;-72
2023/04/29 08:24:11;;;;;;;;;46.50;36.75;;;;;-145.45;100.00;57426.63;6245809;22;47376;-72
2023/04/29 08:26:39;;;;;;;;;38.75;33.50;;;;;-145.45;100.00;57426.63;6244324;22;45301;-73
2023/04/29 08:29:04;;;;;;;;;42.00;34.50;;;;;-145.45;100.00;57426.63;6246601;22;45229;-71
2023/04/29 08:31:30;;;;;;;;;40.25;36.00;;;;;-145.45;100.00;57426.63;6245306;22;45524;-71
2023/04/29 08:33:57;;;;;;;;;47.25;35.25;;;;;-145.45;100.00;57426.63;6218382;22;47216;-71
2023/04/29 08:36:23;;;;;;;;;35.50;30.25;;;;;-145.45;100.00;57426.63;6244833;22;45189;-71
2023/04/29 08:38:51;;;;;;;;;38.25;32.00;;;;;-145.45;100.00;57426.63;6245996;22;45212;-73
2023/04/29 08:41:16;;;;;;;;;40.50;35.25;;;;;-145.45;100.00;57426.63;6217878;22;45551;-70
2023/04/29 08:43:42;;;;;;;;;44.25;34.75;;;;;-145.45;100.00;57426.63;6246173;22;45935;-70
2023/04/29 08:46:08;;;;;;;;;39.00;33.00;;;;;-145.45;100.00;57426.63;6218276;22;45280;-71
2023/04/29 08:48:36;;;;;;;;;40.25;33.25;;;;;-145.45;100.00;57426.63;6246566;22;45226;-71
2023/04/29 08:51:01;;;;;;;;;40.25;34.00;;;;;-145.45;100.00;57426.63;6244912;22;46055;-69
2023/04/29 08:53:27;;;;;;;;;39.00;33.00;;;;;-145.45;100.00;57426.63;6218349;22;46367;-71
2023/04/29 08:55:53;;;;;;;;;46.25;36.75;;;;;-145.45;100.00;57426.63;6245752;22;45231;-70
2023/04/29 08:58:19;;;;;;;;;38.25;32.50;;;;;-145.45;100.00;57426.63;6246283;22;45223;-69
2023/04/29 09:00:45;;;;;;;;;46.00;34.50;;;;;-145.45;100.00;57426.63;6245339;22;45453;-70
2023/04/29 09:03:23;;;;;;;;;46.50;34.75;;;;;-145.45;100.00;57426.63;6246251;22;45210;-70
2023/04/29 09:05:52;;;;;;;;;43.50;35.25;;;;;-145.45;100.00;57426.63;6217741;22;45335;-70
2023/04/29 09:08:20;;;;;;;;;43.50;36.25;;;;;-145.45;100.00;57426.63;6245827;22;45244;-70
2023/04/29 09:10:46;;;;;;;;;44.25;36.00;;;;;-145.45;100.00;57426.63;6245311;22;45249;-70
2023/04/29 09:13:29;;;;;;;;;43.25;35.75;;;;;-145.45;100.00;57426.63;6245830;22;46238;-71
2023/04/29 09:15:55;;;;;;;;;57.00;45.50;;;;;-145.45;100.00;57426.63;6245582;22;45291;-72
2023/04/29 09:18:46;;;;;;;;;46.75;34.25;;;;;-145.45;100.00;57426.63;6245199;22;45253;-71
2023/04/29 09:21:31;;;;;;;;;43.00;36.00;;;;;-145.45;100.00;57426.63;6244457;22;45256;-71
2023/04/29 09:24:01;;;;;;;;;65.75;52.25;;;;;-145.45;100.00;57426.63;6245962;22;45915;-70
2023/04/29 09:26:32;;;;;;;;;74.50;61.25;;;;;-145.45;100.00;57426.63;6245351;22;45292;-71
2023/04/29 09:29:08;;;;;;;;;49.50;37.75;;;;;-145.45;100.00;57426.63;6246285;22;45184;-71
2023/04/29 09:31:33;;;;;;;;;55.75;37.75;;;;;-145.45;100.00;57426.63;6245356;22;45526;-70
2023/04/29 09:33:58;;;;;;;;;63.50;48.50;;;;;-145.45;100.00;57426.63;6245771;22;45697;-71
2023/04/29 09:36:47;;;;;;;;;61.50;47.25;;;;;-145.45;100.00;57426.63;6244961;22;45307;-71
2023/04/29 09:39:21;;;;;;;;;47.50;40.25;;;;;-145.45;100.00;57426.63;6246717;22;45284;-71
2023/04/29 09:41:52;;;;;;;;;41.50;36.00;;;;;-145.45;100.00;57426.63;6246504;22;45302;-71
2023/04/29 09:44:22;;;;;;;;;49.25;37.50;;;;;-145.45;100.00;57426.63;6247014;22;46514;-72
2023/04/29 09:47:01;;;;;;;;;44.25;34.50;;;;;-145.45;100.00;57426.63;6244100;22;45750;-71
2023/04/29 09:49:36;;;;;;;;;35.75;32.25;;;;;-145.45;100.00;57426.63;6245865;22;45618;-71
2023/04/29 09:52:03;;;;;;;;;41.75;36.00;;;;;-145.45;100.00;57426.63;6245190;22;45241;-72
2023/04/29 09:54:30;;;;;;;;;44.50;36.00;;;;;-145.45;100.00;57426.63;6246724;22;45325;-72
2023/04/29 09:56:57;;;;;;;;;46.25;36.75;;;;;-145.45;100.00;57426.63;6246594;22;45375;-72
2023/04/29 09:59:23;;;;;;;;;54.75;42.50;;;;;-145.45;100.00;57426.63;6247107;22;45288;-71
2023/04/29 10:01:54;;;;;;;;;50.75;41.25;;;;;-145.45;100.00;57426.63;6246462;22;45245;-71
2023/04/29 10:04:21;;;;;;;;;46.00;37.75;;;;;-145.45;100.00;57426.63;6246683;22;45415;-71
2023/04/29 10:06:51;;;;;;;;;53.25;40.25;;;;;-145.45;100.00;57426.63;6245936;22;45394;-72
2023/04/29 10:09:18;;;;;;;;;45.75;35.25;;;;;-145.45;100.00;57426.63;6246998;22;45257;-71
2023/04/29 10:11:45;;;;;;;;;43.50;35.00;;;;;-145.45;100.00;57426.63;6246175;22;45398;-71
2023/04/29 10:14:13;;;;;;;;;34.25;30.00;;;;;-145.45;100.00;57426.63;6245772;22;45407;-71
2023/04/29 10:16:46;;;;;;;;;45.50;36.25;;;;;-145.45;100.00;57426.63;6246100;22;45233;-71
2023/04/29 10:19:17;;;;;;;;;57.75;45.75;;;;;-145.45;100.00;57426.63;6247133;22;45563;-69
2023/04/29 10:21:43;;;;;;;;;54.25;43.75;;;;;-145.45;100.00;57426.63;6245792;22;45188;-69
2023/04/29 10:24:12;;;;;;;;;44.25;33.75;;;;;-145.45;100.00;57426.63;6246828;22;45357;-69
2023/04/29 10:26:38;;;;;;;;;46.25;35.50;;;;;-145.45;100.00;57426.63;6218425;22;46176;-71
2023/04/29 10:29:04;;;;;;;;;35.00;31.75;;;;;-145.45;100.00;57426.63;6218831;22;45229;-70
2023/04/29 10:31:31;;;;;;;;;31.50;29.75;;;;;-145.45;100.00;57426.63;6246206;22;45233;-70
2023/04/29 10:33:57;;;;;;;;;32.75;30.00;;;;;-145.45;100.00;57426.63;6246385;22;46101;-71
2023/04/29 10:36:26;;;;;;;;;39.50;33.50;;;;;-145.45;100.00;57426.63;6217902;22;44587;-70
2023/04/29 10:38:54;;;;;;;;;32.50;29.25;;;;;-145.45;100.00;57426.63;6246947;22;45196;-71
2023/04/29 10:41:33;;;;;;;;;29.25;26.25;;;;;-145.45;100.00;57426.63;6246396;22;45208;-70
2023/04/29 10:43:59;;;;;;;;;36.50;30.50;;;;;-145.45;100.00;57426.63;6246445;22;45308;-71
2023/04/29 10:46:25;;;;;;;;;28.33;27.00;;;;;-145.45;100.00;57426.63;6244968;22;45265;-71
2023/04/29 10:48:59;;;;;;;;;27.33;25.33;;;;;-145.45;100.00;57426.63;6246199;22;45293;-71
2023/04/29 10:51:38;;;;;;;;;29.67;27.33;;;;;-145.45;100.00;57426.63;6245753;22;45343;-70
2023/04/29 10:54:15;;;;;;;;;33.67;29.67;;;;;-145.45;100.00;57426.63;6246688;22;45487;-70
2023/04/29 10:56:49;;;;;;;;;37.67;32.00;;;;;-145.45;100.00;57426.63;6246252;22;45296;-71
2023/04/29 10:59:19;;;;;;;;;24.67;23.00;;;;;-145.45;100.00;57426.63;6247187;22;45167;-71
2023/04/29 11:01:52;;;;;;;;;44.50;34.50;;;;;-145.45;100.00;57426.63;6218617;22;45341;-71
2023/04/29 11:04:19;;;;;;;;;26.00;26.00;;;;;-145.45;100.00;57426.63;6218289;22;46673;-71
2023/04/29 11:06:50;;;;;;;;;25.67;22.67;;;;;-145.45;100.00;57426.63;6245316;22;45682;-70
2023/04/29 11:09:19;;;;;;;;;44.00;35.00;;;;;-145.45;100.00;57426.63;6244696;22;45182;-71
2023/04/29 11:11:57;;;;;;;;;26.33;24.67;;;;;-145.45;100.00;57426.63;6218331;22;45400;-71
2023/04/29 11:14:29;;;;;;;;;27.00;24.33;;;;;-145.45;100.00;57426.63;6245674;22;45537;-71
2023/04/29 11:16:57;;;;;;;;;35.00;29.67;;;;;-145.45;100.00;57426.63;6245593;22;45359;-70
2023/04/29 11:19:34;;;;;;;;;29.67;26.00;;;;;-145.45;100.00;57426.63;6246089;22;45285;-71
2023/04/29 11:22:11;;;;;;;;;34.67;29.33;;;;;-145.45;100.00;57426.63;6244781;22;45683;-70
2023/04/29 11:25:01;;;;;;;;;27.00;25.33;;;;;-145.45;100.00;57426.63;6245585;22;45208;-71
2023/04/29 11:27:34;;;;;;;;;27.67;27.33;;;;;-145.45;100.00;57426.63;6246536;22;45295;-71
2023/04/29 11:30:03;;;;;;;;;29.33;27.00;;;;;-145.45;100.00;57426.63;6245957;22;45322;-71
2023/04/29 11:32:31;;;;;;;;;28.67;24.67;;;;;-145.45;100.00;57426.63;6218310;22;46243;-71
2023/04/29 11:35:08;;;;;;;;;22.67;20.00;;;;;-145.45;100.00;57426.63;6244906;22;45303;-71
2023/04/29 11:37:34;;;;;;;;;28.67;26.33;;;;;-145.45;100.00;57426.63;6246105;22;45278;-71
2023/04/29 11:40:02;;;;;;;;;36.00;30.33;;;;;-145.45;100.00;57426.63;6218501;22;45328;-70
2023/04/29 11:42:27;;;;;;;;;33.33;30.33;;;;;-145.45;100.00;57426.63;6244074;22;46122;-71
2023/04/29 11:44:58;;;;;;;;;27.00;24.00;;;;;-145.45;100.00;57426.63;6245993;22;45388;-70
2023/04/29 11:47:28;;;;;;;;;28.67;27.00;;;;;-145.45;100.00;57426.63;6245899;22;44621;-70
2023/04/29 11:50:01;;;;;;;;;25.67;22.67;;;;;-145.45;100.00;57426.63;6245311;22;45281;-70
2023/04/29 11:52:27;;;;;;;;;25.00;22.33;;;;;-145.45;100.00;57426.63;6245400;22;45395;-71
2023/04/29 11:54:53;;;;;;;;;24.00;22.33;;;;;-145.45;100.00;57426.63;6245737;22;45330;-71
2023/04/29 11:57:18;;;;;;;;;30.00;25.33;;;;;-145.45;100.00;57426.63;6218590;22;45240;-71
2023/04/29 11:59:45;;;;;;;;;28.67;25.67;;;;;-145.45;100.00;57426.63;6246260;22;45233;-71
2023/04/29 12:02:12;;;;;;;;;24.67;24.67;;;;;-145.45;100.00;57426.63;6246063;22;45158;-70
2023/04/29 12:04:45;;;;;;;;;29.67;24.33;;;;;-145.45;100.00;57426.63;6217171;22;47609;-71
2023/04/29 12:07:13;;;;;;;;;23.33;20.67;;;;;-145.45;100.00;57426.63;6245733;22;45281;-71
2023/04/29 12:09:44;;;;;;;;;22.00;20.67;;;;;-145.45;100.00;57426.63;6246138;22;45434;-70
2023/04/29 12:12:11;;;;;;;;;25.33;25.33;;;;;-145.45;100.00;57426.63;6243630;22;47014;-71
2023/04/29 12:14:37;;;;;;;;;24.00;21.67;;;;;-145.45;100.00;57426.63;6245951;22;45964;-71
2023/04/29 12:17:03;;;;;;;;;25.00;23.67;;;;;-145.45;100.00;57426.63;6245747;22;45339;-71
2023/04/29 12:19:29;;;;;;;;;27.67;24.67;;;;;-145.45;100.00;57426.63;6218553;22;45339;-71
2023/04/29 12:21:58;;;;;;;;;21.67;19.00;;;;;-145.45;100.00;57426.63;6244712;22;45410;-70
2023/04/29 12:24:23;;;;;;;;;20.67;20.67;;;;;-145.45;100.00;57426.63;6245713;22;45545;-70
2023/04/29 12:26:49;;;;;;;;;23.67;21.67;;;;;-145.45;100.00;57426.63;6245226;22;45386;-71
2023/04/29 12:29:15;;;;;;;;;24.67;23.67;;;;;-145.45;100.00;57426.63;6245902;22;45356;-70
2023/04/29 12:31:40;;;;;;;;;25.00;22.00;;;;;-145.45;100.00;57426.63;6245419;22;45314;-70
2023/04/29 12:34:07;;;;;;;;;27.67;19.00;;;;;-145.45;100.00;57426.63;6244675;22;45263;-70
2023/04/29 12:36:33;;;;;;;;;27.33;25.33;;;;;-145.45;100.00;57426.63;6217153;22;45299;-71
2023/04/29 12:38:58;;;;;;;;;30.33;25.33;;;;;-145.45;100.00;57426.63;6246081;22;45110;-71
2023/04/29 12:41:37;;;;;;;;;28.33;26.33;;;;;-145.45;100.00;57426.63;6217915;22;45441;-71
2023/04/29 12:44:04;;;;;;;;;27.00;25.00;;;;;-145.45;100.00;57426.63;6246004;22;46007;-71
2023/04/29 12:46:35;;;;;;;;;26.67;25.33;;;;;-145.45;100.00;57426.63;6244991;22;45237;-70
2023/04/29 12:49:03;;;;;;;;;25.33;22.33;;;;;-145.45;100.00;57426.63;6246453;22;45240;-72
2023/04/29 12:51:31;;;;;;;;;30.67;26.67;;;;;-145.45;100.00;57426.63;6244460;22;45317;-72
2023/04/29 12:53:57;;;;;;;;;32.33;26.33;;;;;-145.45;100.00;57426.63;6218433;22;48455;-69
2023/04/29 12:56:22;;;;;;;;;25.67;25.33;;;;;-145.45;100.00;57426.63;6245499;22;45263;-71
2023/04/29 12:58:48;;;;;;;;;22.00;20.67;;;;;-145.45;100.00;57426.63;6246195;22;45173;-71
2023/04/29 13:01:13;;;;;;;;;28.33;24.33;;;;;-145.45;100.00;57426.63;6217823;22;47344;-72
2023/04/29 13:03:38;;;;;;;;;25.00;21.33;;;;;-145.45;100.00;57426.63;6245534;22;45193;-73
2023/04/29 13:06:04;;;;;;;;;25.00;23.67;;;;;-145.45;100.00;57426.63;6245010;22;45304;-71
2023/04/29 13:08:30;;;;;;;;;25.00;20.33;;;;;-145.45;100.00;57426.63;6245653;22;45280;-70
2023/04/29 13:10:55;;;;;;;;;24.00;20.33;;;;;-145.45;100.00;57426.63;6244009;22;45626;-71
2023/04/29 13:13:21;;;;;;;;;28.00;25.00;;;;;-145.45;100.00;57426.63;6244126;22;45290;-71
2023/04/29 13:15:46;;;;;;;;;25.00;24.00;;;;;-145.45;100.00;57426.63;6218148;22;45277;-71
2023/04/29 13:18:11;;;;;;;;;27.67;24.33;;;;;-145.45;100.00;57426.63;6246368;22;45207;-71
2023/04/29 13:20:37;;;;;;;;;18.67;18.67;;;;;-145.45;100.00;57426.63;6244383;22;45246;-72
2023/04/29 13:23:02;;;;;;;;;23.67;21.00;;;;;-145.45;100.00;57426.63;6216782;22;46735;-71
2023/04/29 13:25:27;;;;;;;;;19.67;17.00;;;;;-145.45;100.00;57426.63;6245465;22;45272;-70
2023/04/29 13:27:53;;;;;;;;;20.67;18.33;;;;;-145.45;100.00;57426.63;6244711;22;45297;-71
2023/04/29 13:30:18;;;;;;;;;29.33;25.00;;;;;-145.45;100.00;57426.63;6245151;22;45305;-70
2023/04/29 13:32:44;;;;;;;;;23.67;22.00;;;;;-145.45;100.00;57426.63;6218218;22;47074;-71
2023/04/29 13:35:09;;;;;;;;;28.00;25.00;;;;;-145.45;100.00;57426.63;6218083;22;45378;-71
2023/04/29 13:37:35;;;;;;;;;25.33;20.67;;;;;-145.45;100.00;57426.63;6244703;22;45204;-71
2023/04/29 13:40:00;;;;;;;;;21.00;16.67;;;;;-145.45;100.00;57426.63;6245326;22;45197;-70
2023/04/29 13:42:25;;;;;;;;;21.33;20.33;;;;;-145.45;100.00;57426.63;6217394;22;45405;-71
2023/04/29 13:44:52;;;;;;;;;20.67;20.67;;;;;-145.45;100.00;57426.63;6244736;22;45398;-71
2023/04/29 13:47:18;;;;;;;;;21.33;18.33;;;;;-145.45;100.00;57426.63;6245278;22;45451;-71
2023/04/29 13:49:43;;;;;;;;;21.00;19.33;;;;;-145.45;100.00;57426.63;6245204;22;45245;-70
2023/04/29 13:52:10;;;;;;;;;19.33;18.33;;;;;-145.45;100.00;57426.63;6245293;22;46120;-70
2023/04/29 13:54:35;;;;;;;;;22.00;19.00;;;;;-145.45;100.00;57426.63;6217103;22;45493;-70
2023/04/29 13:57:04;;;;;;;;;21.67;20.33;;;;;-145.45;100.00;57426.63;6245084;22;45253;-70
2023/04/29 13:59:33;;;;;;;;;20.00;19.67;;;;;-145.45;100.00;57426.63;6245065;22;45524;-72
2023/04/29 14:02:00;;;;;;;;;20.33;20.00;;;;;-145.45;100.00;57426.63;6217238;22;46601;-71
2023/04/29 14:04:26;;;;;;;;;25.33;23.00;;;;;-145.45;100.00;57426.63;6244658;22;45401;-70
2023/04/29 14:06:51;;;;;;;;;17.00;17.00;;;;;-145.45;100.00;57426.63;6244654;22;45273;-71
2023/04/29 14:09:18;;;;;;;;;21.67;17.33;;;;;-145.45;100.00;57426.63;6245638;22;45253;-70
2023/04/29 14:11:44;;;;;;;;;19.67;17.00;;;;;-145.45;100.00;57426.63;6242321;22;46550;-70
2023/04/29 14:14:09;;;;;;;;;21.00;18.00;;;;;-145.45;100.00;57426.63;6217330;22;45273;-70
2023/04/29 14:16:35;;;;;;;;;20.00;20.00;;;;;-145.45;100.00;57426.63;6244772;22;45177;-70
2023/04/29 14:19:00;;;;;;;;;21.00;18.00;;;;;-145.45;100.00;57426.63;6217459;22;45452;-70
2023/04/29 14:21:26;;;;;;;;;18.00;18.00;;;;;-145.45;100.00;57426.63;6244193;22;45238;-71
2023/04/29 14:23:52;;;;;;;;;21.67;19.00;;;;;-145.45;100.00;57426.63;6245263;22;45241;-71
2023/04/29 14:26:17;;;;;;;;;17.33;16.33;;;;;-145.45;100.00;57426.63;6246155;22;45423;-70
2023/04/29 14:28:43;;;;;;;;;19.00;18.33;;;;;-145.45;100.00;57426.63;6246735;22;45437;-72
2023/04/29 14:31:08;;;;;;;;;23.67;16.67;;;;;-145.45;100.00;57426.63;6246212;22;45328;-71
2023/04/29 14:33:33;;;;;;;;;22.00;21.00;;;;;-145.45;100.00;57426.63;6246116;22;45184;-71
2023/04/29 14:36:02;;;;;;;;;11.67;11.67;;;;;-145.45;100.00;57426.63;6246141;22;45272;-72
2023/04/29 14:38:27;;;;;;;;;17.00;16.33;;;;;-145.45;100.00;57426.63;6218792;22;45348;-71
2023/04/29 14:40:52;;;;;;;;;16.67;16.67;;;;;-145.45;100.00;57426.63;6243940;22;45521;-70
2023/04/29 14:43:18;;;;;;;;;19.00;18.33;;;;;-145.45;100.00;57426.63;6218938;22;45388;-70
2023/04/29 14:45:44;;;;;;;;;18.00;17.00;;;;;-145.45;100.00;57426.63;6246109;22;45289;-71
2023/04/29 14:48:09;;;;;;;;;20.67;19.67;;;;;-145.45;100.00;57426.63;6219254;22;46107;-70
2023/04/29 14:50:35;;;;;;;;;19.33;17.33;;;;;-145.45;100.00;57426.63;6245302;22;46503;-70
2023/04/29 14:53:00;;;;;;;;;17.00;16.00;;;;;-145.45;100.00;57426.63;6246674;22;45086;-71
2023/04/29 14:55:26;;;;;;;;;11.67;11.67;;;;;-145.45;100.00;57426.63;6246436;22;45221;-71
2023/04/29 14:57:51;;;;;;;;;15.67;12.67;;;;;-145.45;100.00;57426.63;6244805;22;45249;-70
2023/04/29 15:00:17;;;;;;;;;17.33;15.67;;;;;-145.45;100.00;57426.63;6245478;22;46255;-71
2023/04/29 15:02:42;;;;;;;;;20.00;13.67;;;;;-145.45;100.00;57426.63;6245951;22;45098;-72
2023/04/29 15:05:08;;;;;;;;;15.00;15.00;;;;;-145.45;100.00;57426.63;6246100;22;45372;-71
2023/04/29 15:07:34;;;;;;;;;18.67;16.00;;;;;-145.45;100.00;57426.63;6245926;22;45166;-71
2023/04/29 15:09:59;;;;;;;;;16.33;14.33;;;;;-145.45;100.00;57426.63;6245040;22;46660;-71
2023/04/29 15:12:25;;;;;;;;;15.33;15.33;;;;;-145.45;100.00;57426.63;6246146;22;45276;-70
2023/04/29 15:14:51;;;;;;;;;17.33;17.33;;;;;-145.45;100.00;57426.63;6244273;22;45328;-71
2023/04/29 15:17:17;;;;;;;;;16.67;14.00;;;;;-145.45;100.00;57426.63;6245833;22;45396;-70
2023/04/29 15:19:42;;;;;;;;;10.67;9.00;;;;;-145.45;100.00;57426.63;6218040;22;48088;-71
2023/04/29 15:22:08;;;;;;;;;14.33;13.00;;;;;-145.45;100.00;57426.63;6245727;22;45560;-71
2023/04/29 15:24:33;;;;;;;;;15.00;14.67;;;;;-145.45;100.00;57426.63;6246789;22;45225;-70
2023/04/29 15:26:59;;;;;;;;;17.33;16.67;;;;;-145.45;100.00;57426.63;6246229;22;45264;-70
2023/04/29 15:29:24;;;;;;;;;13.67;13.67;;;;;-145.45;100.00;57426.63;6246837;22;46042;-70
2023/04/29 15:31:50;;;;;;;;;20.33;17.67;;;;;-145.45;100.00;57426.63;6243770;22;45319;-70
2023/04/29 15:34:15;;;;;;;;;12.67;12.67;;;;;-145.45;100.00;57426.63;6246835;22;45233;-71
2023/04/29 15:36:41;;;;;;;;;12.67;12.67;;;;;-145.45;100.00;57426.63;6245521;22;45226;-70
2023/04/29 15:39:09;;;;;;;;;16.67;16.33;;;;;-145.45;100.00;57426.63;6218863;22;47858;-70
2023/04/29 15:41:35;;;;;;;;;16.33;13.00;;;;;-145.45;100.00;57426.63;6246287;22;45346;-70
2023/04/29 15:44:00;;;;;;;;;20.00;17.00;;;;;-145.45;100.00;57426.63;6246765;22;45188;-70
2023/04/29 15:46:26;;;;;;;;;18.67;18.67;;;;;-145.45;100.00;57426.63;6246084;22;45272;-71
2023/04/29 15:48:52;;;;;;;;;12.67;10.67;;;;;-145.45;100.00;57426.63;6246671;22;46001;-70
2023/04/29 15:51:17;;;;;;;;;17.00;16.67;;;;;-145.45;100.00;57426.63;6243701;22;45340;-71
2023/04/29 15:53:43;;;;;;;;;17.33;17.33;;;;;-145.45;100.00;57426.63;6246452;22;45268;-71
2023/04/29 15:56:09;;;;;;;;;20.67;18.67;;;;;-145.45;100.00;57426.63;6218385;22;46852;-70
2023/04/29 15:58:35;;;;;;;;;16.67;16.67;;;;;-145.45;100.00;57426.63;6246321;22;45315;-71
2023/04/29 16:01:00;;;;;;;;;15.00;15.00;;;;;-145.45;100.00;57426.63;6245970;22;45135;-71
2023/04/29 16:03:26;;;;;;;;;10.67;10.67;;;;;-145.45;100.00;57426.63;6244039;22;45237;-71
2023/04/29 16:05:52;;;;;;;;;18.67;16.00;;;;;-145.45;100.00;57426.63;6245118;22;45297;-71
2023/04/29 16:08:17;;;;;;;;;19.67;18.33;;;;;-145.45;100.00;57426.63;6246286;22;46243;-71
2023/04/29 16:10:44;;;;;;;;;15.67;15.67;;;;;-145.45;100.00;57426.63;6245975;22;45184;-71
2023/04/29 16:13:10;;;;;;;;;20.33;19.67;;;;;-145.45;100.00;57426.63;6245818;22;45301;-70
2023/04/29 16:15:35;;;;;;;;;23.33;21.00;;;;;-145.45;100.00;57426.63;6245840;22;45382;-71
2023/04/29 16:18:01;;;;;;;;;20.67;19.67;;;;;-145.45;100.00;57426.63;6246326;22;46565;-70
2023/04/29 16:20:26;;;;;;;;;21.33;17.67;;;;;-145.45;100.00;57426.63;6217927;22;45302;-71
2023/04/29 16:22:52;;;;;;;;;24.00;24.00;;;;;-145.45;100.00;57426.63;6245878;22;45216;-71
2023/04/29 16:25:17;;;;;;;;;18.67;18.33;;;;;-145.45;100.00;57426.63;6245767;22;45295;-71
2023/04/29 16:27:43;;;;;;;;;20.00;19.00;;;;;-145.45;100.00;57426.63;6246481;22;46026;-71
2023/04/29 16:30:08;;;;;;;;;19.33;17.33;;;;;-145.45;100.00;57426.63;6246201;22;45257;-71
2023/04/29 16:32:34;;;;;;;;;19.67;19.00;;;;;-145.45;100.00;57426.63;6246903;22;45266;-71
2023/04/29 16:34:59;;;;;;;;;17.33;17.33;;;;;-145.45;100.00;57426.63;6246954;22;45424;-71
2023/04/29 16:37:25;;;;;;;;;16.33;14.67;;;;;-145.45;100.00;57426.63;6247156;22;45370;-71
2023/04/29 16:39:50;;;;;;;;;29.00;24.67;;;;;-145.45;100.00;57426.63;6246523;22;45164;-71
2023/04/29 16:42:16;;;;;;;;;19.67;19.67;;;;;-145.45;100.00;57426.63;6246780;22;45175;-71
2023/04/29 16:44:42;;;;;;;;;31.67;29.00;;;;;-145.45;100.00;57426.63;6245349;22;45178;-72
2023/04/29 16:47:07;;;;;;;;;20.67;19.67;;;;;-145.45;100.00;57426.63;6245623;22;46196;-71
2023/04/29 16:49:33;;;;;;;;;25.33;23.33;;;;;-145.45;100.00;57426.63;6218792;22;45205;-71
2023/04/29 16:51:58;;;;;;;;;26.67;20.67;;;;;-145.45;100.00;57426.63;6245637;22;45170;-71
2023/04/29 16:54:25;;;;;;;;;23.33;20.00;;;;;-145.45;100.00;57426.63;6246727;22;45165;-71
2023/04/29 16:56:50;;;;;;;;;22.00;21.33;;;;;-145.45;100.00;57426.63;6246163;22;45342;-71
2023/04/29 16:59:16;;;;;;;;;32.00;30.33;;;;;-145.45;100.00;57426.63;6245325;22;45288;-71
2023/04/29 17:01:41;;;;;;;;;26.00;23.00;;;;;-145.45;100.00;57426.63;6245611;22;45840;-70
2023/04/29 17:04:10;;;;;;;;;37.33;33.33;;;;;-145.45;100.00;57426.63;6245412;22;45434;-71
2023/04/29 17:06:36;;;;;;;;;25.33;24.00;;;;;-145.45;100.00;57426.63;6244710;22;45298;-71
2023/04/29 17:09:02;;;;;;;;;27.33;24.67;;;;;-145.45;100.00;57426.63;6218270;22;45342;-71
2023/04/29 17:11:27;;;;;;;;;26.67;25.00;;;;;-145.45;100.00;57426.63;6246386;22;45187;-70
2023/04/29 17:13:52;;;;;;;;;26.33;21.00;;;;;-145.45;100.00;57426.63;6217840;22;45796;-71
2023/04/29 17:16:18;;;;;;;;;23.00;23.00;;;;;-145.45;100.00;57426.63;6245969;22;45959;-72
2023/04/29 17:18:43;;;;;;;;;23.67;23.67;;;;;-145.45;100.00;57426.63;6246546;22;45229;-70
2023/04/29 17:21:09;;;;;;;;;29.33;27.67;;;;;-145.45;100.00;57426.63;6245757;22;45125;-71
2023/04/29 17:23:34;;;;;;;;;24.33;20.67;;;;;-145.45;100.00;57426.63;6246039;22;45201;-71
2023/04/29 17:26:00;;;;;;;;;21.67;17.33;;;;;-145.45;100.00;57426.63;6245685;22;45169;-71
2023/04/29 17:28:26;;;;;;;;;26.00;23.00;;;;;-145.45;100.00;57426.63;6218428;22;45311;-70
2023/04/29 17:30:54;;;;;;;;;26.00;22.67;;;;;-145.45;100.00;57426.63;6245827;22;45296;-71
2023/04/29 17:33:20;;;;;;;;;17.67;16.67;;;;;-145.45;100.00;57426.63;6218161;22;45968;-72
2023/04/29 17:35:45;;;;;;;;;21.00;19.67;;;;;-145.45;100.00;57426.63;6245311;22;46722;-71
2023/04/29 17:38:11;;;;;;;;;24.33;24.00;;;;;-145.45;100.00;57426.63;6246148;22;45175;-71
2023/04/29 17:40:36;;;;;;;;;20.00;18.33;;;;;-145.45;100.00;57426.63;6245911;22;45195;-72
2023/04/29 17:43:02;;;;;;;;;23.00;21.33;;;;;-145.45;100.00;57426.63;6245753;22;45165;-71
2023/04/29 17:45:27;;;;;;;;;24.00;21.33;;;;;-145.45;100.00;57426.63;6217864;22;46251;-71
2023/04/29 17:47:52;;;;;;;;;19.33;18.67;;;;;-145.45;100.00;57426.63;6245608;22;45193;-71
2023/04/29 17:50:18;;;;;;;;;29.67;24.00;;;;;-145.45;100.00;57426.63;6245362;22;45204;-71
2023/04/29 17:52:43;;;;;;;;;26.33;22.67;;;;;-145.45;100.00;57426.63;6245673;22;45170;-71
2023/04/29 17:55:09;;;;;;;;;24.67;21.00;;;;;-145.45;100.00;57426.63;6245317;22;46127;-70
2023/04/29 17:57:36;;;;;;;;;26.67;23.67;;;;;-145.45;100.00;57426.63;6244495;22;45258;-70
2023/04/29 18:00:03;;;;;;;;;23.33;21.33;;;;;-145.45;100.00;57426.63;6218522;22;45281;-71
2023/04/29 18:02:29;;;;;;;;;20.67;19.33;;;;;-145.45;100.00;57426.63;6246832;22;45430;-70
2023/04/29 18:04:54;;;;;;;;;24.67;23.67;;;;;-145.45;100.00;57426.63;6246868;22;45275;-70
2023/04/29 18:07:20;;;;;;;;;27.00;24.33;;;;;-145.45;100.00;57426.63;6247071;22;45217;-71
2023/04/29 18:09:45;;;;;;;;;20.33;18.00;;;;;-145.45;100.00;57426.63;6247215;22;45205;-71
2023/04/29 18:12:12;;;;;;;;;21.00;20.00;;;;;-145.45;100.00;57426.63;6246759;22;45245;-70
2023/04/29 18:14:38;;;;;;;;;29.33;20.33;;;;;-145.45;100.00;57426.63;6247072;22;45498;-70